Terminal Aerodrome Forecast
Issued by NWS

Home | Current Version | Previous Version | Text Only | Print | Product List | Glossary On
Versions: 1 2 3 4 5 6 7 8 9 10 11 12 13 14 15 16 17 18 19 20 21 22 23 24 25 26 27 28 29 30 31
000
FTAK31 PANC 061736
TAFAVD
TAF
PAVD 061736Z 0618/0718 VRB03KT P6SM VCSH FEW015 SCT030 OVC040
      TEMPO 0618/0621 5SM -SHRA BR SCT015 BKN025
     FM062100 VRB03KT 5SM -SHRA BR SCT015 BKN025
     FM070600 VRB03KT 4SM -RA BR FEW005 OVC015
     FM071000 VRB03KT 3SM RASN BR SCT005 OVC010
      AMD LTD TO CLD VIS AND WIND=

USA.gov is the U.S. government's official web portal to all federal, state and local government web resources and services.